Date,TemperatureHighF,TemperatureAvgF,TemperatureLowF,DewpointHighF,DewpointAvgF,DewpointLowF,HumidityHigh,HumidityAvg,HumidityLow,PressureMaxIn,PressureMinIn,WindSpeedMaxMPH,WindSpeedAvgMPH,GustSpeedMaxMPH,PrecipitationSumIn
2013-1-1,38,36,32,34,31,26,87,83,76,30.10,29.98,0,0,0,0.04
2013-1-2,38,31,26,27,23,21,81,72,58,30.21,30.09,0,0,0,0.00
2013-1-3,43,31,22,28,22,17,80,69,54,30.32,30.16,0,0,0,0.01
2013-1-4,42,34,28,30,25,21,79,69,56,30.35,30.29,0,0,0,0.00
2013-1-5,47,35,24,33,26,18,82,70,52,30.32,30.13,0,0,0,0.00
2013-1-6,42,38,29,34,29,21,76,70,64,30.33,30.04,0,0,0,0.00
2013-1-7,43,32,24,30,23,18,80,71,55,30.40,30.18,0,0,0,0.00
2013-1-8,54,38,26,38,28,20,81,70,49,30.26,30.16,0,0,0,0.01
2013-1-9,60,48,37,49,40,30,87,75,59,30.44,30.16,0,0,0,0.01
2013-1-10,48,44,40,44,39,34,88,83,75,30.43,29.97,0,0,0,0.22
2013-1-11,66,56,45,56,50,42,92,80,57,29.98,29.79,0,0,0,0.88
2013-1-12,66,60,47,62,56,42,91,88,82,29.96,29.71,0,0,0,0.04
2013-1-13,67,53,34,61,49,29,91,86,77,30.15,29.67,0,0,0,1.99
2013-1-14,34,31,28,29,24,22,82,76,68,30.39,30.15,0,0,0,0.00
2013-1-15,33,29,25,28,24,20,85,80,73,30.29,30.01,0,0,0,0.00
2013-1-16,37,34,32,32,30,28,86,83,78,30.07,29.96,0,0,0,0.07
2013-1-17,47,37,32,36,29,24,84,73,49,30.35,30.05,0,0,0,0.12
2013-1-18,44,35,25,28,24,20,81,66,50,30.48,30.21,0,0,0,0.01
2013-1-19,56,47,38,33,30,27,65,52,36,30.22,29.92,0,0,0,0.01
2013-1-20,49,41,32,34,21,12,67,45,30,30.21,29.96,0,0,0,0.00
2013-1-21,33,28,19,17,10,2,62,48,35,30.24,30.10,0,0,0,0.00
2013-1-22,26,20,14,5,2,-1,51,45,37,30.38,30.23,0,0,0,0.00
2013-1-23,33,23,18,19,9,4,59,54,47,30.32,30.04,0,0,0,0.00
2013-1-24,32,27,22,20,7,-1,62,44,27,30.51,30.09,0,0,0,0.00
2013-1-25,31,27,25,24,16,4,76,63,40,30.36,30.02,0,0,0,0.00
2013-1-26,40,29,22,24,19,16,79,67,49,30.35,30.12,0,0,0,0.01
2013-1-27,42,34,24,37,26,16,85,72,61,30.35,30.08,0,0,0,0.16
2013-1-28,55,51,41,51,46,37,89,84,76,30.08,29.99,0,0,0,0.21
2013-1-29,66,60,53,60,55,48,88,83,78,30.01,29.51,0,0,0,0.01
2013-1-30,68,54,34,61,48,26,90,80,68,29.66,29.27,0,0,0,0.95
2013-1-31,38,32,20,27,22,10,82,67,55,30.09,29.66,0,0,0,0.00
2013-2-1,26,19,12,14,8,2,69,62,51,30.42,30.09,0,0,0,0.03
2013-2-2,37,30,22,29,22,12,84,73,62,30.27,29.96,0,0,0,0.07
2013-2-3,34,30,25,26,23,18,80,73,67,30.10,29.92,0,0,0,0.00
2013-2-4,46,34,22,39,27,16,87,76,54,30.07,29.77,0,0,0,0.17
2013-2-5,50,43,36,39,35,31,86,76,60,29.98,29.81,0,0,0,0.00
2013-2-6,44,37,31,34,30,25,83,74,63,30.20,29.98,0,0,0,0.00
2013-2-7,65,48,34,43,36,29,82,66,43,30.12,29.77,0,0,0,0.03
2013-2-8,55,41,33,46,34,26,83,75,65,30.28,29.77,0,0,0,0.10
2013-2-9,46,37,29,29,26,22,79,66,46,30.34,30.12,0,0,0,0.02
2013-2-10,56,45,35,49,38,26,88,76,53,30.12,29.74,0,0,0,0.19
2013-2-11,55,50,38,51,37,27,89,62,45,30.04,29.73,0,0,0,0.00
2013-2-12,53,42,30,34,29,24,78,62,42,30.10,29.84,0,0,0,0.00
2013-2-13,46,40,34,36,31,27,80,71,61,29.87,29.73,0,0,0,0.07
2013-2-14,58,44,34,40,35,27,86,70,47,29.95,29.79,0,0,0,0.02
2013-2-15,46,40,31,35,29,20,76,64,45,30.12,29.94,0,0,0,0.00
2013-2-16,39,31,26,22,17,11,72,56,38,30.11,30.02,0,0,0,0.00
2013-2-17,43,32,22,21,16,12,70,54,38,30.19,30.07,0,0,0,0.00
2013-2-18,62,44,26,42,30,18,80,59,37,30.12,29.69,0,0,0,0.24
2013-2-19,48,38,27,42,27,16,85,66,47,30.13,29.65,0,0,0,0.10
2013-2-20,37,30,23,20,16,13,65,56,45,30.26,30.13,0,0,0,0.00
2013-2-21,38,30,22,29,20,14,84,65,49,30.27,29.94,0,0,0,0.20
2013-2-22,49,40,33,40,34,29,89,80,70,29.94,29.79,0,0,0,0.27
2013-2-23,50,40,32,33,28,24,81,62,42,29.97,29.85,0,0,0,0.00
2013-2-24,50,37,27,31,25,20,76,62,42,30.08,29.91,0,0,0,0.00
2013-2-25,51,39,28,28,25,22,77,58,38,30.06,29.73,0,0,0,0.00
2013-2-26,48,44,41,45,37,25,88,77,48,29.73,29.29,0,0,0,0.72
2013-2-27,42,39,36,37,33,30,85,79,69,29.73,29.50,0,0,0,0.04
2013-2-28,40,37,35,34,32,29,85,82,78,29.93,29.70,0,0,0,0.01
2013-3-1,41,38,35,35,33,31,86,82,79,29.97,29.88,0,0,0,0.04
2013-3-2,35,33,31,31,26,24,86,76,68,30.05,29.95,0,0,0,0.02
2013-3-3,43,34,28,26,23,18,78,64,44,30.06,29.99,0,0,0,0.01
2013-3-4,45,35,23,29,22,16,77,59,38,30.09,29.86,0,0,0,0.00
2013-3-5,46,40,32,43,34,27,88,79,60,29.86,29.53,0,0,0,0.45
2013-3-6,36,34,32,30,28,27,86,81,77,30.23,29.73,0,0,0,0.08
2013-3-7,40,36,33,32,29,27,82,75,67,30.32,30.20,0,0,0,0.03
2013-3-8,50,40,30,30,28,24,81,63,44,30.38,30.26,0,0,0,0.00
2013-3-9,61,47,32,38,32,25,79,59,36,30.27,29.95,0,0,0,0.00
2013-3-10,70,58,44,45,38,35,72,49,30,29.95,29.72,0,0,0,0.03
2013-3-11,58,50,40,51,43,32,90,76,61,29.86,29.60,0,0,0,1.03
2013-3-12,53,43,37,34,30,26,73,61,43,30.04,29.86,0,0,0,0.05
2013-3-13,39,35,30,31,23,19,75,62,49,30.30,29.99,0,0,0,0.00
2013-3-14,50,36,25,31,24,18,76,62,38,30.31,30.14,0,0,0,0.00
2013-3-15,62,47,32,44,36,26,82,68,49,30.14,29.68,0,0,0,0.02
2013-3-16,72,61,45,53,47,37,74,61,47,29.92,29.57,0,0,0,0.01
2013-3-17,45,38,36,38,34,31,88,83,74,30.02,29.83,0,0,0,1.02
2013-3-18,53,42,36,48,39,33,91,87,76,29.83,29.57,0,0,0,0.96
2013-3-19,52,42,33,36,26,19,83,56,30,30.08,29.81,0,0,0,0.01
2013-3-20,46,36,28,27,20,14,74,53,36,30.08,29.94,0,0,0,0.00
2013-3-21,39,30,24,18,14,12,61,53,37,29.99,29.92,0,0,0,0.02
2013-3-22,46,35,22,23,18,14,73,53,35,30.02,29.91,0,0,0,0.09
2013-3-23,56,46,39,30,25,22,54,44,33,29.96,29.75,0,0,0,0.00
2013-3-24,47,41,38,36,32,25,85,71,42,29.75,29.32,0,0,0,0.57
2013-3-25,39,36,34,33,31,28,84,81,77,29.93,29.40,0,0,0,0.05
2013-3-26,44,38,34,35,30,25,84,71,52,30.21,29.93,0,0,0,0.03
2013-3-27,50,40,30,31,27,23,75,59,43,30.27,30.20,0,0,0,0.00
2013-3-28,55,42,29,32,27,22,77,58,36,30.30,30.19,0,0,0,0.00
2013-3-29,58,45,34,42,33,26,76,63,47,30.23,30.10,0,0,0,0.03
2013-3-30,61,48,35,45,36,30,88,67,42,30.14,29.85,0,0,0,0.00
2013-3-31,63,54,48,51,45,39,86,74,52,29.84,29.73,0,0,0,0.08
2013-4-1,57,48,41,42,32,22,78,56,29,30.06,29.75,0,0,0,0.00
2013-4-2,54,43,30,27,22,17,69,47,27,30.19,30.06,0,0,0,0.00
2013-4-3,53,42,30,24,20,17,67,44,27,30.30,30.17,0,0,0,0.00
2013-4-4,56,47,40,28,24,20,56,41,31,30.19,29.91,0,0,0,0.00
2013-4-5,69,51,34,38,31,25,73,49,28,30.02,29.90,0,0,0,0.01
2013-4-6,73,57,41,41,35,29,67,45,28,30.06,29.81,0,0,0,0.02
2013-4-7,75,66,59,56,47,38,79,50,38,29.88,29.80,0,0,0,0.13
2013-4-8,74,65,55,58,53,49,83,67,53,29.88,29.78,0,0,0,0.02
2013-4-9,82,69,57,62,56,50,81,65,45,29.94,29.82,0,0,0,0.03
2013-4-10,85,75,62,64,60,55,79,62,47,29.87,29.65,0,0,0,0.00
2013-4-11,75,66,57,62,59,53,89,78,55,29.69,29.43,0,0,0,1.00
2013-4-12,57,50,43,53,39,34,86,67,53,29.86,29.48,0,0,0,0.03
2013-4-13,65,50,36,42,36,30,80,60,37,29.95,29.86,0,0,0,0.01
2013-4-14,75,58,42,48,42,35,80,57,30,29.91,29.72,0,0,0,0.00
2013-4-15,73,65,60,56,52,47,72,63,53,29.88,29.78,0,0,0,0.03
2013-4-16,82,68,56,67,59,50,87,74,56,30.03,29.82,0,0,0,0.36
2013-4-17,75,66,61,67,61,57,89,85,74,30.03,29.82,0,0,0,0.11
2013-4-18,83,71,58,65,58,54,91,66,42,29.81,29.48,0,0,0,0.01
2013-4-19,75,50,43,61,40,33,83,68,52,29.94,29.42,0,0,0,1.11
2013-4-20,60,48,37,38,33,28,80,58,33,30.25,29.93,0,0,0,0.00
2013-4-21,62,50,38,37,32,28,67,50,32,30.36,30.19,0,0,0,0.05
2013-4-22,73,56,40,47,39,32,74,55,34,30.22,29.98,0,0,0,0.02
2013-4-23,70,61,48,55,48,41,78,64,53,30.01,29.74,0,0,0,0.04
2013-4-24,68,53,40,55,44,33,84,72,61,30.14,29.69,0,0,0,0.66
2013-4-25,65,50,35,44,36,30,85,63,38,30.25,30.12,0,0,0,0.01
2013-4-26,65,53,39,41,36,32,78,55,31,30.31,30.19,0,0,0,0.00
2013-4-27,59,55,51,54,48,41,88,76,63,30.22,29.86,0,0,0,0.06
2013-4-28,67,60,56,61,55,52,90,83,72,29.86,29.73,0,0,0,0.15
2013-4-29,69,61,56,57,53,49,86,75,55,29.90,29.80,0,0,0,0.01
2013-4-30,82,65,49,60,52,45,88,66,37,29.91,29.82,0,0,0,0.00
2013-5-1,84,70,55,62,56,49,85,64,41,30.02,29.91,0,0,0,0.00
2013-5-2,77,68,58,60,56,53,83,66,49,30.06,29.93,0,0,0,0.09
2013-5-3,78,68,62,61,57,56,82,69,47,29.93,29.76,0,0,0,0.08
2013-5-4,63,59,55,58,52,49,88,80,63,29.87,29.77,0,0,0,0.77
2013-5-5,55,54,53,52,50,49,90,87,83,29.85,29.74,0,0,0,0.86
2013-5-6,69,59,54,58,54,50,89,83,63,29.80,29.66,0,0,0,0.05
2013-5-7,75,65,58,60,56,54,89,74,53,29.84,29.76,0,0,0,0.03
2013-5-8,79,67,56,62,57,51,87,71,46,29.88,29.79,0,0,0,0.02
2013-5-9,83,69,56,64,58,52,87,70,40,29.90,29.79,0,0,0,0.01
2013-5-10,68,65,62,64,61,57,90,85,75,29.81,29.69,0,0,0,0.87
2013-5-11,67,60,52,60,53,44,88,78,62,29.89,29.75,0,0,0,0.13
2013-5-12,63,54,44,44,37,34,74,56,35,30.01,29.90,0,0,0,0.00
2013-5-13,69,56,43,41,37,34,69,52,31,30.07,29.97,0,0,0,0.02
2013-5-14,84,66,47,61,50,39,78,58,42,30.01,29.70,0,0,0,0.00
2013-5-15,88,78,68,64,58,54,68,53,34,29.83,29.72,0,0,0,0.00
2013-5-16,75,70,65,65,59,50,83,68,51,29.79,29.68,0,0,0,0.08
2013-5-17,77,69,61,67,61,57,88,77,58,29.74,29.60,0,0,0,0.00
2013-5-18,81,72,66,68,65,62,86,77,62,29.70,29.47,0,0,0,0.00
2013-5-19,88,83,68,72,70,63,84,65,55,29.70,29.35,0,0,0,0.00
2013-5-20,87,76,67,71,67,63,87,73,56,29.91,29.42,0,0,0,0.00
2013-5-21,86,76,67,70,65,61,84,69,51,29.98,29.81,0,0,0,0.05
2013-5-22,79,71,66,67,64,61,84,77,62,29.84,29.76,0,0,0,0.21
2013-5-23,71,66,57,62,58,49,88,76,64,30.10,29.82,0,0,0,0.03
2013-5-24,71,60,51,52,46,41,81,63,37,30.32,30.10,0,0,0,0.00
2013-5-25,73,59,46,51,46,40,84,63,39,30.39,30.21,0,0,0,0.00
2013-5-26,74,65,56,55,52,49,83,65,46,30.29,30.14,0,0,0,0.05
2013-5-27,86,73,59,63,57,51,77,60,38,30.15,29.95,0,0,0,0.00
2013-5-28,88,78,71,68,62,60,70,59,42,30.03,29.92,0,0,0,0.00
2013-5-29,88,77,64,67,62,57,78,62,44,30.08,29.98,0,0,0,0.00
2013-5-30,89,78,67,70,66,60,77,67,52,30.11,29.98,0,0,0,0.00
2013-5-31,80,76,74,70,67,64,79,74,68,30.03,29.91,0,0,0,0.09
2013-6-1,75,71,66,66,64,59,82,77,69,29.96,29.78,0,0,0,0.31
2013-6-2,80,72,65,66,62,57,81,71,55,29.93,29.85,0,0,0,0.00
2013-6-3,76,68,60,60,56,51,77,66,49,30.04,29.93,0,0,0,0.00
2013-6-4,80,67,54,61,55,48,80,65,48,30.10,30.00,0,0,0,0.00
2013-6-5,85,73,60,66,59,52,76,62,45,30.03,29.81,0,0,0,0.00
2013-6-6,82,73,68,68,64,60,81,73,59,29.84,29.74,0,0,0,0.07
2013-6-7,81,72,65,66,61,59,82,70,53,29.84,29.76,0,0,0,0.00
2013-6-8,83,74,64,68,62,57,77,66,50,29.99,29.83,0,0,0,0.00
2013-6-9,82,73,65,69,63,58,80,72,51,30.02,29.83,0,0,0,0.08
2013-6-10,79,72,67,68,64,62,84,75,62,29.88,29.78,0,0,0,0.26
2013-6-11,88,76,67,70,65,60,80,68,49,29.97,29.87,0,0,0,0.00
2013-6-12,93,83,71,77,72,65,83,70,55,29.94,29.74,0,0,0,0.00
2013-6-13,84,80,70,74,67,54,77,64,48,29.94,29.64,0,0,0,0.07
2013-6-14,85,73,60,64,58,52,74,60,41,30.02,29.90,0,0,0,0.00
2013-6-15,88,76,62,66,61,56,81,62,42,30.08,29.93,0,0,0,0.00
2013-6-16,84,74,68,72,66,62,82,75,66,30.03,29.93,0,0,0,0.54
2013-6-17,90,74,67,74,66,62,84,76,49,29.96,29.83,0,0,0,0.32
2013-6-18,88,75,66,71,65,59,85,72,45,29.94,29.80,0,0,0,0.03
2013-6-19,86,74,64,68,62,59,84,69,46,30.06,29.93,0,0,0,0.01
2013-6-20,89,77,63,67,63,58,83,63,43,30.15,30.06,0,0,0,0.00
2013-6-21,91,78,66,70,65,59,80,64,45,30.16,30.06,0,0,0,0.00
2013-6-22,91,78,70,74,68,64,83,72,49,30.15,30.03,0,0,0,0.19
2013-6-23,87,76,67,73,67,62,85,76,57,30.10,30.01,0,0,0,0.03
2013-6-24,81,74,70,72,68,65,86,81,71,30.12,30.02,0,0,0,0.03
2013-6-25,92,80,68,77,70,63,86,73,52,30.04,29.87,0,0,0,0.00
2013-6-26,86,76,69,76,69,64,86,79,66,29.97,29.69,0,0,0,3.08
2013-6-27,90,79,70,78,71,66,86,78,63,29.78,29.72,0,0,0,0.00
2013-6-28,90,81,73,71,66,60,79,62,40,29.72,29.58,0,0,0,0.00
2013-6-29,85,74,67,68,63,60,84,70,54,29.63,29.55,0,0,0,0.30
2013-6-30,83,72,66,68,64,61,85,76,57,29.79,29.62,0,0,0,0.00
2013-7-1,82,71,67,70,64,62,84,79,61,29.87,29.76,0,0,0,0.29
2013-7-2,82,72,64,69,64,60,86,76,55,29.98,29.86,0,0,0,0.00
2013-7-3,84,73,64,70,65,59,85,77,57,30.06,29.98,0,0,0,0.46
2013-7-4,72,70,68,68,66,64,86,85,84,30.10,30.02,0,0,0,0.42
2013-7-5,75,69,67,70,65,63,87,86,83,30.09,30.03,0,0,0,0.04
2013-7-6,76,71,68,68,66,64,86,83,76,30.08,30.03,0,0,0,0.43
2013-7-7,87,76,66,72,67,62,86,74,55,30.08,30.00,0,0,0,0.01
2013-7-8,90,78,67,75,69,62,85,73,57,30.11,30.00,0,0,0,0.00
2013-7-9,92,83,74,77,73,69,84,73,58,30.06,29.95,0,0,0,0.00
2013-7-10,91,80,73,79,72,67,83,78,58,29.97,29.82,0,0,0,0.25
2013-7-11,86,77,69,69,66,61,86,70,48,29.96,29.89,0,0,0,0.00
2013-7-12,83,74,64,63,59,56,78,61,44,30.05,29.97,0,0,0,0.00
2013-7-13,84,75,65,70,63,59,79,67,53,30.06,29.98,0,0,0,0.00
2013-7-14,91,79,69,74,68,63,84,71,53,30.15,30.05,0,0,0,0.32
2013-7-15,92,81,72,74,71,67,86,71,52,30.25,30.15,0,0,0,0.01
2013-7-16,94,83,72,77,72,67,85,71,52,30.29,30.20,0,0,0,0.00
2013-7-17,95,84,74,78,74,69,84,73,52,30.28,30.13,0,0,0,0.02
2013-7-18,96,84,76,78,75,71,85,73,50,30.16,30.00,0,0,0,0.00
2013-7-19,92,84,75,77,73,69,82,70,54,30.01,29.87,0,0,0,0.00
2013-7-20,92,82,75,75,72,69,83,71,54,29.91,29.82,0,0,0,0.00
2013-7-21,89,79,72,73,69,65,84,71,53,29.93,29.82,0,0,0,0.36
2013-7-22,82,75,72,75,70,67,87,83,74,29.89,29.74,0,0,0,0.72
2013-7-23,91,79,70,77,71,65,87,78,60,29.82,29.70,0,0,0,0.00
2013-7-24,81,73,65,70,62,57,78,68,53,29.93,29.78,0,0,0,0.00
2013-7-25,82,72,63,64,59,56,78,65,47,30.03,29.93,0,0,0,0.00
2013-7-26,84,72,61,66,61,55,84,68,48,30.04,29.93,0,0,0,0.00
2013-7-27,79,72,67,67,63,57,84,74,56,29.93,29.82,0,0,0,0.07
2013-7-28,79,68,55,57,54,49,81,63,44,30.02,29.90,0,0,0,0.00
2013-7-29,84,70,57,64,58,51,84,66,45,30.13,30.02,0,0,0,0.00
2013-7-30,82,70,62,66,62,56,84,76,53,30.16,30.06,0,0,0,0.11
2013-7-31,77,71,67,69,65,62,85,82,78,30.08,29.91,0,0,0,0.00
2013-8-1,86,76,69,70,66,61,86,71,47,29.97,29.89,0,0,0,0.00
2013-8-2,85,75,63,68,63,58,84,68,50,29.99,29.92,0,0,0,0.00
2013-8-3,88,78,70,74,68,64,85,73,61,29.99,29.90,0,0,0,0.04
2013-8-4,83,74,65,66,58,55,81,60,43,30.09,29.99,0,0,0,0.00
2013-8-5,84,72,59,62,58,53,83,63,41,30.07,29.89,0,0,0,0.00
2013-8-6,85,77,70,73,68,61,81,72,64,29.91,29.86,0,0,0,0.00
2013-8-7,84,79,73,75,72,68,86,80,71,29.91,29.82,0,0,0,0.00
2013-8-8,89,80,73,76,72,69,86,77,62,29.91,29.82,0,0,0,0.01
2013-8-9,88,80,74,77,72,69,86,78,60,29.97,29.86,0,0,0,0.14
2013-8-10,83,78,74,74,71,69,85,79,68,30.05,29.96,0,0,0,0.04
2013-8-11,91,80,73,73,70,66,85,71,52,30.05,29.98,0,0,0,0.00
2013-8-12,82,74,67,74,67,62,86,81,70,30.03,29.84,0,0,0,0.44
2013-8-13,83,75,67,72,66,54,87,75,56,30.01,29.82,0,0,0,0.08
2013-8-14,78,66,58,56,53,50,76,62,44,30.10,30.00,0,0,0,0.00
2013-8-15,78,66,54,59,54,48,83,66,47,30.10,30.00,0,0,0,0.00
2013-8-16,82,69,57,62,57,52,84,66,45,30.08,30.02,0,0,0,0.00
2013-8-17,85,74,66,66,61,57,78,65,49,30.11,30.02,0,0,0,0.01
2013-8-18,85,74,63,66,62,57,84,67,47,30.11,30.02,0,0,0,0.01
2013-8-19,87,76,65,68,64,60,84,67,47,30.07,29.98,0,0,0,0.00
2013-8-20,87,75,65,72,66,60,84,74,54,30.09,30.00,0,0,0,0.00
2013-8-21,90,78,68,74,69,64,86,73,53,30.11,29.98,0,0,0,0.01
2013-8-22,92,80,70,74,69,65,86,69,46,30.06,29.96,0,0,0,0.00
2013-8-23,89,79,71,70,67,65,83,69,48,30.05,29.97,0,0,0,0.00
2013-8-24,90,77,66,69,62,55,84,62,31,30.18,30.05,0,0,0,0.00
2013-8-25,91,76,63,68,62,57,84,63,40,30.26,30.14,0,0,0,0.00
2013-8-26,92,80,69,74,68,63,83,68,49,30.20,30.03,0,0,0,0.00
2013-8-27,93,82,74,77,72,68,84,73,56,30.05,29.92,0,0,0,0.00
2013-8-28,96,84,75,73,71,68,84,66,40,29.95,29.86,0,0,0,0.00
2013-8-29,94,83,76,75,70,68,82,65,47,29.96,29.88,0,0,0,0.00
2013-8-30,96,82,71,74,70,65,85,67,45,29.93,29.78,0,0,0,0.00
2013-8-31,96,83,72,77,72,66,85,70,49,29.85,29.69,0,0,0,0.44
2013-9-1,89,79,70,75,70,65,86,76,60,29.82,29.69,0,0,0,0.27
2013-9-2,88,78,71,75,70,65,85,77,64,29.82,29.74,0,0,0,0.05
2013-9-3,83,73,65,65,60,56,78,65,45,30.00,29.82,0,0,0,0.00
2013-9-4,84,70,58,63,58,52,85,67,44,30.09,29.99,0,0,0,0.00
2013-9-5,87,74,62,67,62,56,84,68,48,30.13,30.05,0,0,0,0.00
2013-9-6,87,74,64,68,62,58,82,68,49,30.15,30.01,0,0,0,0.00
2013-9-7,88,76,63,70,64,58,84,69,50,30.03,29.89,0,0,0,0.00
2013-9-8,91,79,71,74,68,66,86,71,52,29.93,29.86,0,0,0,0.05
2013-9-9,93,80,68,74,69,63,84,69,51,29.97,29.89,0,0,0,0.00
2013-9-10,94,82,74,77,71,68,84,72,54,30.07,29.96,0,0,0,0.00
2013-9-11,93,81,71,76,71,66,86,73,52,30.11,29.98,0,0,0,0.00
2013-9-12,82,76,72,72,68,64,84,76,57,29.98,29.85,0,0,0,0.02
2013-9-13,75,67,57,64,52,46,77,60,40,30.01,29.87,0,0,0,0.00
2013-9-14,74,61,50,52,47,44,80,62,38,30.11,30.00,0,0,0,0.00
2013-9-15,81,65,49,60,52,43,82,66,45,30.07,29.96,0,0,0,0.00
2013-9-16,75,70,66,63,60,57,80,71,62,30.18,29.99,0,0,0,0.00
2013-9-17,79,67,56,57,54,50,83,66,43,30.21,30.06,0,0,0,0.00
2013-9-18,79,69,62,69,62,54,82,77,69,30.08,29.99,0,0,0,0.00
2013-9-19,84,72,65,73,66,60,87,81,66,30.07,29.91,0,0,0,0.18
2013-9-20,84,74,68,72,67,63,86,79,63,29.93,29.75,0,0,0,0.59
2013-9-21,76,67,60,65,58,51,87,72,48,29.81,29.67,0,0,0,0.44
2013-9-22,74,62,52,54,50,46,82,65,46,29.93,29.81,0,0,0,0.00
2013-9-23,75,61,49,55,50,44,84,69,47,30.01,29.92,0,0,0,0.00
2013-9-24,80,65,53,64,56,48,82,72,53,29.97,29.80,0,0,0,0.00
2013-9-25,79,69,64,66,61,58,83,75,57,29.83,29.77,0,0,0,0.00
2013-9-26,80,67,54,60,55,50,85,68,43,29.98,29.84,0,0,0,0.00
2013-9-27,82,67,54,62,55,49,85,67,40,30.09,29.98,0,0,0,0.00
2013-9-28,82,68,55,65,57,49,85,69,46,30.09,29.98,0,0,0,0.00
2013-9-29,66,62,57,60,57,52,86,82,77,30.00,29.94,0,0,0,0.14
2013-9-30,77,68,63,65,61,58,88,79,65,29.95,29.87,0,0,0,0.02
2013-10-1,80,69,59,67,61,54,87,77,59,30.02,29.93,0,0,0,0.00
2013-10-2,80,70,63,72,65,58,87,84,75,30.04,29.96,0,0,0,0.66
2013-10-3,82,74,69,71,67,64,87,79,60,30.03,29.92,0,0,0,0.04
2013-10-4,84,73,65,72,66,60,87,78,61,30.02,29.92,0,0,0,0.00
2013-10-5,73,71,68,69,66,64,87,86,83,29.98,29.86,0,0,0,3.12
2013-10-6,71,65,56,66,60,49,88,85,77,29.86,29.72,0,0,0,2.12
2013-10-7,66,56,49,50,48,45,86,73,53,30.09,29.81,0,0,0,0.01
2013-10-8,70,56,46,52,47,41,88,71,47,30.18,30.07,0,0,0,0.00
2013-10-9,76,60,47,59,51,42,87,74,52,30.14,30.05,0,0,0,0.02
2013-10-10,72,59,53,55,51,48,83,76,53,30.07,29.99,0,0,0,0.00
2013-10-11,78,62,50,57,51,45,86,70,42,30.03,29.94,0,0,0,0.01
2013-10-12,81,65,52,63,55,47,85,72,48,30.04,29.95,0,0,0,0.01
2013-10-13,78,68,61,64,57,44,85,71,50,30.21,30.04,0,0,0,0.00
2013-10-14,74,62,53,55,49,43,78,61,49,30.24,30.08,0,0,0,0.00
2013-10-15,72,63,56,64,58,51,86,82,71,30.08,29.87,0,0,0,0.00
2013-10-16,66,63,53,61,56,47,88,79,65,29.91,29.82,0,0,0,0.00
2013-10-17,62,53,48,51,46,42,84,78,63,29.93,29.84,0,0,0,0.00
2013-10-18,68,54,44,52,45,39,88,73,48,29.98,29.87,0,0,0,0.00
2013-10-19,56,51,42,48,45,37,86,79,64,29.95,29.77,0,0,0,0.08
2013-10-20,63,50,38,46,40,33,88,71,49,29.99,29.92,0,0,0,0.00
2013-10-21,68,54,41,48,43,36,86,68,45,29.95,29.83,0,0,0,0.00
2013-10-22,58,50,38,45,37,32,81,62,41,29.99,29.74,0,0,0,0.01
2013-10-23,51,47,42,43,37,34,78,69,53,30.01,29.69,0,0,0,0.00
2013-10-24,48,43,38,37,33,28,76,68,57,30.23,30.00,0,0,0,0.01
2013-10-25,52,41,32,34,29,26,77,63,41,30.39,30.23,0,0,0,0.00
2013-10-26,58,44,31,40,33,25,82,66,48,30.23,29.88,0,0,0,0.00
2013-10-27,63,48,35,43,36,30,84,65,36,30.04,29.95,0,0,0,0.00
2013-10-28,66,50,38,44,37,32,83,65,38,30.20,30.00,0,0,0,0.00
2013-10-29,56,48,40,52,43,35,87,82,72,30.26,30.08,0,0,0,0.21
2013-10-30,70,61,55,65,57,51,89,87,82,30.08,29.93,0,0,0,1.06
2013-10-31,67,64,60,63,59,55,88,85,79,29.93,29.34,0,0,0,1.26
2013-11-1,68,59,51,55,49,44,86,70,45,29.71,29.41,0,0,0,0.00
2013-11-2,62,51,42,47,41,37,85,70,53,30.04,29.71,0,0,0,0.00
2013-11-3,58,47,39,42,37,33,83,69,45,30.24,30.04,0,0,0,0.00
2013-11-4,62,50,41,45,40,35,84,70,50,30.28,30.18,0,0,0,0.00
2013-11-5,63,55,49,47,45,43,83,70,51,30.31,30.12,0,0,0,0.00
2013-11-6,66,55,46,58,50,40,87,81,69,30.12,29.91,0,0,0,0.29
2013-11-7,55,46,40,43,35,29,84,66,41,30.23,30.03,0,0,0,0.06
2013-11-8,56,44,33,36,31,27,80,62,39,30.31,30.15,0,0,0,0.00
2013-11-9,64,49,33,39,34,27,81,59,38,30.15,29.99,0,0,0,0.00
2013-11-10,60,50,38,40,34,28,77,57,32,30.26,30.07,0,0,0,0.00
2013-11-11,65,48,33,41,33,27,80,60,29,30.23,30.01,0,0,0,0.01
2013-11-12,45,37,30,38,24,19,80,60,41,30.56,30.16,0,0,0,0.03
2013-11-13,45,34,26,27,22,18,76,61,40,30.58,30.32,0,0,0,0.00
2013-11-14,57,41,27,29,23,20,76,53,25,30.33,30.07,0,0,0,0.00
2013-11-15,54,45,34,43,34,25,83,65,47,30.09,30.00,0,0,0,0.08
2013-11-16,63,55,48,57,50,43,88,85,81,30.02,29.80,0,0,0,0.00
2013-11-17,67,62,50,63,56,44,88,82,55,29.79,29.48,0,0,0,3.45
2013-11-18,60,50,39,44,38,30,82,66,42,30.13,29.77,0,0,0,0.00
2013-11-19,46,39,32,33,29,26,80,69,55,30.25,30.13,0,0,0,0.00
2013-11-20,55,41,30,36,31,25,82,69,45,30.20,30.08,0,0,0,0.01
2013-11-21,61,50,40,50,43,33,86,77,65,30.20,30.06,0,0,0,0.12
2013-11-22,57,52,43,53,47,35,88,83,73,30.30,30.07,0,0,0,0.04
2013-11-23,45,37,27,35,25,12,78,62,38,30.50,30.28,0,0,0,0.00
2013-11-24,33,27,22,18,14,12,67,58,44,30.61,30.43,0,0,0,0.00
2013-11-25,42,34,26,30,21,15,77,58,41,30.43,30.09,0,0,0,0.00
2013-11-26,38,37,35,33,31,28,84,80,71,30.13,29.85,0,0,0,0.05
2013-11-27,37,31,24,28,21,13,74,66,55,30.24,29.87,0,0,0,0.00
2013-11-28,40,30,21,21,17,13,71,59,43,30.36,30.20,0,0,0,0.00
2013-11-29,46,33,23,29,22,17,77,65,47,30.52,30.36,0,0,0,0.00
2013-11-30,56,39,27,35,27,20,80,64,39,30.39,30.09,0,0,0,0.00
2013-12-1,58,49,37,40,34,28,73,58,51,30.09,29.86,0,0,0,0.00
2013-12-2,56,47,38,43,38,32,80,72,60,29.86,29.65,0,0,0,0.00
2013-12-3,58,49,39,51,44,33,88,81,74,29.75,29.66,0,0,0,0.00
2013-12-4,68,57,47,60,52,42,88,82,71,29.72,29.58,0,0,0,0.00
2013-12-5,67,50,36,61,45,31,86,81,75,30.07,29.67,0,0,0,0.83
2013-12-6,36,31,29,31,27,25,86,85,81,30.29,30.03,0,0,0,0.30
2013-12-7,30,26,22,25,20,16,84,79,74,30.50,30.29,0,0,0,0.08
2013-12-8,34,29,23,31,24,18,88,84,80,30.38,29.93,0,0,0,0.00
2013-12-9,35,32,28,31,27,21,88,82,75,30.15,29.93,0,0,0,0.00
2013-12-10,34,28,23,24,21,17,80,75,65,30.27,30.07,0,0,0,0.07
2013-12-11,40,28,19,30,21,14,82,74,64,30.43,30.21,0,0,0,0.19
2013-12-12,32,24,15,16,13,8,75,62,44,30.49,30.25,0,0,0,0.02
2013-12-13,43,33,21,31,22,14,84,65,45,30.25,30.01,0,0,0,0.05
2013-12-14,42,37,35,38,33,30,87,85,82,30.02,29.62,0,0,0,0.59
2013-12-15,36,32,30,32,26,24,84,78,73,30.04,29.85,0,0,0,0.00
2013-12-16,46,38,32,37,31,27,83,78,68,30.03,29.90,0,0,0,0.00
2013-12-17,41,36,32,36,30,26,85,78,69,30.11,29.87,0,0,0,0.00
2013-12-18,45,35,26,26,23,20,81,63,39,30.20,29.96,0,0,0,0.00
2013-12-19,60,49,34,45,34,23,71,58,48,30.00,29.85,0,0,0,0.01
2013-12-20,62,57,53,57,49,39,87,75,54,29.85,29.72,0,0,0,0.06
2013-12-21,68,63,59,64,59,56,88,86,82,29.72,29.35,0,0,0,2.90
2013-12-22,62,52,41,58,47,36,88,83,79,29.98,29.44,0,0,0,0.25
2013-12-23,41,35,30,36,27,22,82,73,65,30.31,29.98,0,0,0,0.01
2013-12-24,30,25,19,23,15,10,74,65,51,30.46,30.28,0,0,0,0.00
2013-12-25,40,30,20,26,19,14,77,65,50,30.34,30.11,0,0,0,0.00
2013-12-26,46,38,30,31,27,23,75,65,52,30.27,30.10,0,0,0,0.00
2013-12-27,52,37,26,34,27,20,82,68,47,30.29,30.19,0,0,0,0.00
2013-12-28,50,39,28,35,29,22,81,68,51,30.20,29.89,0,0,0,0.04
2013-12-29,50,41,33,43,36,28,87,81,72,29.96,29.72,0,0,0,0.51
2013-12-30,34,31,27,28,23,17,82,72,62,30.15,29.96,0,0,0,0.00
2013-12-31,42,32,25,26,21,16,72,63,47,30.28,30.08,0,0,0,0.00
2014-1-1,49,39,29,32,27,22,78,64,46,30.16,29.87,0,0,0,0.00
2014-1-2,39,30,18,34,24,11,85,77,70,30.21,29.70,0,0,0,0.21